Time;durP1;ratioP1;P1;durP2;ratioP2;P2;SDS_P1;SDS_P2;PMS_P1;PMS_P2;Temp;Humidity;BMP_temperature;BMP_pressure;BME280_temperature;BME280_humidity;BME280_pressure;Samples;Min_cycle;Max_cycle;Signal;HPM_P1;HPM_P2
2022/08/09 00:01:23;;;;;;;11.95;7.90;;;15.00;99.90;;;;;;5063215;28;20037;-70
2022/08/09 00:03:49;;;;;;;10.30;7.20;;;15.00;99.90;;;;;;5065554;28;20032;-70
2022/08/09 00:06:14;;;;;;;8.40;6.25;;;15.00;99.90;;;;;;5063234;28;20044;-71
2022/08/09 00:08:40;;;;;;;8.25;7.00;;;15.00;99.90;;;;;;5061272;28;20440;-72
2022/08/09 00:11:06;;;;;;;10.98;7.40;;;14.90;99.90;;;;;;5063018;28;20075;-69
2022/08/09 00:13:31;;;;;;;10.13;7.65;;;14.90;99.90;;;;;;5057286;28;20104;-71
2022/08/09 00:15:57;;;;;;;10.68;6.68;;;14.80;99.90;;;;;;5035569;28;20037;-71
2022/08/09 00:18:23;;;;;;;9.25;6.65;;;14.80;99.90;;;;;;5058199;28;20443;-71
2022/08/09 00:20:48;;;;;;;8.02;6.45;;;14.80;99.90;;;;;;5063074;28;20122;-70
2022/08/09 00:23:14;;;;;;;12.10;7.15;;;14.80;99.90;;;;;;5047400;28;20049;-70
2022/08/09 00:25:40;;;;;;;11.32;7.28;;;14.80;99.90;;;;;;5043487;28;20053;-72
2022/08/09 00:28:06;;;;;;;8.98;7.10;;;14.70;99.90;;;;;;5060116;28;20048;-72
2022/08/09 00:30:32;;;;;;;9.80;7.18;;;14.70;99.90;;;;;;5063989;28;20037;-72
2022/08/09 00:32:59;;;;;;;7.63;6.38;;;14.70;99.90;;;;;;5060659;28;20117;-70
2022/08/09 00:35:24;;;;;;;9.68;6.72;;;14.70;99.90;;;;;;5064865;28;20037;-70
2022/08/09 00:37:50;;;;;;;8.50;6.68;;;14.60;99.90;;;;;;5060847;28;20527;-71
2022/08/09 00:40:16;;;;;;;8.00;6.80;;;14.60;99.90;;;;;;5062163;28;20036;-69
2022/08/09 00:42:42;;;;;;;12.18;7.90;;;14.60;99.90;;;;;;5057285;28;20068;-70
2022/08/09 00:45:08;;;;;;;9.05;6.28;;;14.60;99.90;;;;;;5065028;28;20073;-70
2022/08/09 00:47:34;;;;;;;6.72;5.78;;;14.50;99.90;;;;;;5062796;28;20078;-70
2022/08/09 00:50:00;;;;;;;8.90;6.25;;;14.50;99.90;;;;;;5061314;28;20156;-70
2022/08/09 00:52:28;;;;;;;8.13;6.25;;;14.50;99.90;;;;;;5060340;28;20679;-70
2022/08/09 00:54:54;;;;;;;6.85;5.60;;;14.40;99.90;;;;;;5063637;28;20131;-71
2022/08/09 00:57:19;;;;;;;6.60;5.05;;;14.40;99.90;;;;;;5050235;28;20123;-71
2022/08/09 00:59:45;;;;;;;7.95;5.32;;;14.30;99.90;;;;;;5077678;28;20040;-72
2022/08/09 01:02:13;;;;;;;6.93;5.50;;;14.30;99.90;;;;;;5040174;28;20053;-69
2022/08/09 01:05:02;;;;;;;7.72;5.13;;;14.20;99.90;;;;;;5057374;28;20404;-70
2022/08/09 01:07:44;;;;;;;6.70;5.10;;;14.20;99.90;;;;;;5068455;28;20041;-69
2022/08/09 01:10:36;;;;;;;8.23;5.95;;;14.10;99.90;;;;;;5060111;28;20461;-69
2022/08/09 01:13:16;;;;;;;7.05;6.35;;;14.10;99.90;;;;;;5064717;28;20116;-70
2022/08/09 01:15:47;;;;;;;8.23;6.38;;;14.00;99.90;;;;;;5061663;28;20068;-69
2022/08/09 01:18:17;;;;;;;8.82;5.97;;;14.00;99.90;;;;;;5047909;28;20083;-69
2022/08/09 01:21:03;;;;;;;9.18;6.57;;;14.00;99.90;;;;;;5081153;28;20033;-69
2022/08/09 01:23:54;;;;;;;7.80;6.28;;;14.00;99.90;;;;;;5057576;28;20041;-69
2022/08/09 01:26:53;;;;;;;7.07;6.03;;;13.90;99.90;;;;;;5059061;28;20045;-69
2022/08/09 01:29:28;;;;;;;7.05;5.45;;;13.90;99.90;;;;;;5037313;28;20060;-69
2022/08/09 01:31:58;;;;;;;7.80;5.85;;;13.90;99.90;;;;;;5053165;28;20187;-69
2022/08/09 01:34:25;;;;;;;6.35;5.15;;;13.80;99.90;;;;;;5063949;28;20052;-69
2022/08/09 01:36:52;;;;;;;7.03;5.85;;;13.80;99.90;;;;;;5061360;28;20036;-69
2022/08/09 01:39:19;;;;;;;8.18;6.28;;;13.80;99.90;;;;;;5059542;28;20044;-70
2022/08/09 01:41:47;;;;;;;6.63;5.93;;;13.70;99.90;;;;;;5060023;28;20044;-70
2022/08/09 01:44:15;;;;;;;10.13;6.40;;;13.70;99.90;;;;;;5040386;28;20049;-70
2022/08/09 01:46:44;;;;;;;7.55;6.00;;;13.70;99.90;;;;;;5059401;28;20052;-70
2022/08/09 01:49:13;;;;;;;6.80;5.68;;;13.60;99.90;;;;;;5055964;28;20037;-70
2022/08/09 01:51:42;;;;;;;5.85;5.35;;;13.50;99.90;;;;;;5071945;28;20041;-70
2022/08/09 01:54:09;;;;;;;6.50;5.50;;;13.50;99.90;;;;;;5058309;28;20036;-70
2022/08/09 01:56:38;;;;;;;7.22;5.10;;;13.50;99.90;;;;;;5061477;28;20139;-70
2022/08/09 01:59:09;;;;;;;9.18;5.95;;;13.50;99.90;;;;;;5062743;28;20442;-70
2022/08/09 02:01:38;;;;;;;8.05;6.25;;;13.50;99.90;;;;;;5059124;28;20052;-70
2022/08/09 02:04:05;;;;;;;7.00;6.30;;;13.40;99.90;;;;;;5058750;28;20044;-70
2022/08/09 02:07:33;;;;;;;6.45;5.85;;;13.40;99.90;;;;;;5059671;28;20067;-70
2022/08/09 02:09:29;;;;;;;10.02;8.50;;;13.40;99.90;;;;;;5051696;28;20049;-70
2022/08/09 02:11:56;;;;;;;8.93;6.88;;;13.40;99.90;;;;;;5062996;28;20040;-70
2022/08/09 02:14:24;;;;;;;8.77;7.20;;;13.40;99.90;;;;;;5050142;28;20045;-70
2022/08/09 02:16:51;;;;;;;10.80;7.35;;;13.40;99.90;;;;;;5038411;28;20033;-70
2022/08/09 02:19:17;;;;;;;9.10;7.43;;;13.40;99.90;;;;;;5057543;28;20496;-70
2022/08/09 02:21:47;;;;;;;9.40;7.82;;;13.40;99.90;;;;;;5060459;28;20094;-71
2022/08/09 02:24:17;;;;;;;10.00;8.02;;;13.40;99.90;;;;;;5061029;28;20053;-71
2022/08/09 02:26:44;;;;;;;16.52;13.70;;;13.40;99.90;;;;;;5062840;28;20040;-71
2022/08/09 02:29:21;;;;;;;14.18;11.38;;;13.40;99.90;;;;;;5059175;28;20051;-71
2022/08/09 02:31:48;;;;;;;15.30;10.55;;;13.50;99.90;;;;;;5063881;28;20123;-70
2022/08/09 02:34:25;;;;;;;16.50;10.48;;;13.50;99.90;;;;;;5060841;28;20036;-70
2022/08/09 02:36:53;;;;;;;16.20;11.20;;;13.50;99.90;;;;;;5059322;28;20044;-70
2022/08/09 02:39:33;;;;;;;15.15;10.38;;;13.50;99.90;;;;;;5060426;28;20098;-70
2022/08/09 02:42:09;;;;;;;14.15;10.73;;;13.60;99.90;;;;;;5061133;28;20524;-70
2022/08/09 02:44:46;;;;;;;14.38;10.88;;;13.60;99.90;;;;;;5064146;28;20094;-70
2022/08/09 02:47:15;;;;;;;14.90;11.23;;;13.60;99.90;;;;;;5066696;28;20041;-71
2022/08/09 02:49:55;;;;;;;13.13;10.98;;;13.60;99.90;;;;;;5067156;28;20147;-70
2022/08/09 02:52:24;;;;;;;11.93;10.45;;;13.60;99.90;;;;;;5046004;28;20123;-71
2022/08/09 02:54:52;;;;;;;11.48;9.70;;;13.60;99.90;;;;;;5064408;28;20140;-71
2022/08/09 02:57:19;;;;;;;13.35;10.77;;;13.60;99.90;;;;;;5061395;28;20045;-71
2022/08/09 02:59:46;;;;;;;12.25;9.55;;;13.60;99.90;;;;;;5064419;28;20037;-71
2022/08/09 03:02:15;;;;;;;11.70;10.32;;;13.60;99.90;;;;;;5078749;28;20041;-71
2022/08/09 03:04:43;;;;;;;14.82;10.45;;;13.60;99.90;;;;;;5059083;28;20102;-71
2022/08/09 03:07:09;;;;;;;10.77;9.13;;;13.60;99.90;;;;;;5040367;28;20036;-71
2022/08/09 03:09:37;;;;;;;19.45;13.80;;;13.50;99.90;;;;;;5077798;28;20520;-71
2022/08/09 03:12:03;;;;;;;14.05;10.52;;;13.60;99.90;;;;;;5063065;28;20435;-72
2022/08/09 03:14:30;;;;;;;14.32;10.93;;;13.50;99.90;;;;;;5064965;28;20048;-71
2022/08/09 03:16:58;;;;;;;11.70;9.55;;;13.50;99.90;;;;;;5065450;28;20068;-71
2022/08/09 03:19:24;;;;;;;12.82;10.02;;;13.50;99.90;;;;;;5080268;28;20080;-71
2022/08/09 03:21:51;;;;;;;13.32;10.27;;;13.50;99.90;;;;;;5062169;28;20044;-71
2022/08/09 03:24:17;;;;;;;12.23;10.10;;;13.50;99.90;;;;;;5067609;28;20044;-71
2022/08/09 03:26:46;;;;;;;14.27;10.02;;;13.50;99.90;;;;;;5038854;28;20080;-69
2022/08/09 03:29:13;;;;;;;10.00;9.02;;;13.50;99.90;;;;;;5064259;28;20119;-68
2022/08/09 03:31:40;;;;;;;11.65;9.35;;;13.50;99.90;;;;;;5059173;28;20045;-68
2022/08/09 03:34:06;;;;;;;11.85;10.55;;;13.50;99.90;;;;;;5062410;28;20037;-68
2022/08/09 03:36:32;;;;;;;11.73;9.77;;;13.50;99.90;;;;;;5060745;28;20412;-68
2022/08/09 03:38:58;;;;;;;10.30;9.25;;;13.50;99.90;;;;;;5063427;28;20090;-68
2022/08/09 03:41:24;;;;;;;10.82;9.13;;;13.50;99.90;;;;;;5064083;28;20064;-68
2022/08/09 03:43:50;;;;;;;11.98;9.40;;;13.50;99.90;;;;;;5061420;28;20074;-70
2022/08/09 03:46:15;;;;;;;10.07;8.98;;;13.50;99.90;;;;;;5064471;28;20060;-69
2022/08/09 03:48:43;;;;;;;10.18;8.32;;;13.50;99.90;;;;;;5064076;28;20098;-70
2022/08/09 03:51:10;;;;;;;11.00;9.07;;;13.50;99.90;;;;;;5044281;28;20076;-70
2022/08/09 03:53:37;;;;;;;11.50;9.02;;;13.40;99.90;;;;;;5056094;28;20057;-70
2022/08/09 03:56:04;;;;;;;11.13;8.52;;;13.50;99.90;;;;;;5059636;28;20056;-70
2022/08/09 03:58:31;;;;;;;12.43;9.07;;;13.40;99.90;;;;;;5057196;28;20124;-69
2022/08/09 04:00:56;;;;;;;9.90;8.75;;;13.40;99.90;;;;;;5057154;28;20048;-70
2022/08/09 04:03:23;;;;;;;10.25;8.63;;;13.40;99.90;;;;;;5049020;28;20041;-70
2022/08/09 04:05:48;;;;;;;13.98;9.27;;;13.40;99.90;;;;;;5047720;28;20090;-70
2022/08/09 04:08:14;;;;;;;9.77;8.30;;;13.30;99.90;;;;;;5063636;28;20412;-70
2022/08/09 04:10:40;;;;;;;11.70;9.20;;;13.20;99.90;;;;;;5064074;28;20033;-70
2022/08/09 04:13:08;;;;;;;9.88;8.40;;;13.30;99.90;;;;;;5058890;28;20036;-70
2022/08/09 04:15:36;;;;;;;9.60;8.60;;;13.20;99.90;;;;;;5079920;28;20090;-70
2022/08/09 04:18:03;;;;;;;11.48;7.45;;;13.20;99.90;;;;;;5079230;28;20072;-70
2022/08/09 04:20:28;;;;;;;9.45;7.53;;;13.10;99.90;;;;;;5076299;28;20100;-70
2022/08/09 04:22:54;;;;;;;8.27;6.70;;;13.00;99.90;;;;;;5065882;28;20045;-70
2022/08/09 04:25:20;;;;;;;6.97;6.28;;;13.00;99.90;;;;;;5063139;28;20055;-70
2022/08/09 04:27:46;;;;;;;7.10;6.40;;;13.00;99.90;;;;;;5062243;28;20119;-70
2022/08/09 04:30:14;;;;;;;8.00;6.18;;;13.00;99.90;;;;;;5057570;28;20041;-70
2022/08/09 04:32:40;;;;;;;7.25;6.28;;;12.90;99.90;;;;;;5061330;28;20150;-70
2022/08/09 04:35:08;;;;;;;9.05;6.80;;;12.90;99.90;;;;;;5058574;28;20399;-70
2022/08/09 04:37:35;;;;;;;7.78;6.30;;;12.80;99.90;;;;;;5062586;28;20055;-70
2022/08/09 04:40:01;;;;;;;7.78;5.60;;;12.80;99.90;;;;;;5058110;28;20083;-70
2022/08/09 04:42:28;;;;;;;6.78;6.07;;;12.80;99.90;;;;;;5059461;28;20033;-70
2022/08/09 04:44:59;;;;;;;6.80;6.18;;;12.80;99.90;;;;;;5055945;28;20127;-70
2022/08/09 04:47:25;;;;;;;6.90;5.65;;;12.80;99.90;;;;;;5063758;28;20033;-70
2022/08/09 04:49:51;;;;;;;6.50;5.47;;;12.80;99.90;;;;;;5062777;28;20060;-70
2022/08/09 04:52:17;;;;;;;7.47;6.18;;;12.80;99.90;;;;;;5060266;28;20052;-70
2022/08/09 04:54:43;;;;;;;7.13;6.13;;;12.90;99.90;;;;;;5060467;28;20253;-70
2022/08/09 04:57:10;;;;;;;7.03;6.20;;;12.90;99.90;;;;;;5062798;28;20037;-70
2022/08/09 04:59:36;;;;;;;9.35;7.82;;;13.00;99.90;;;;;;5054582;28;20083;-70
2022/08/09 05:02:02;;;;;;;9.77;7.97;;;13.10;99.90;;;;;;5053683;28;20053;-70
2022/08/09 05:04:27;;;;;;;10.73;8.63;;;13.20;99.90;;;;;;5055311;28;20515;-70
2022/08/09 05:06:53;;;;;;;10.27;7.90;;;13.30;99.90;;;;;;5042475;28;20139;-70
2022/08/09 05:09:20;;;;;;;13.88;9.77;;;13.40;99.90;;;;;;5059930;28;20040;-70
2022/08/09 05:11:46;;;;;;;12.55;8.07;;;13.50;99.90;;;;;;5077057;28;20048;-70
2022/08/09 05:14:12;;;;;;;9.18;7.32;;;13.60;99.90;;;;;;5064038;28;20040;-70
2022/08/09 05:16:38;;;;;;;9.35;8.32;;;13.70;99.90;;;;;;5061162;28;20044;-70
2022/08/09 05:19:04;;;;;;;11.20;7.88;;;13.80;99.90;;;;;;5065148;28;20522;-70
2022/08/09 05:21:30;;;;;;;13.95;9.48;;;14.00;99.90;;;;;;5059481;28;20051;-70
2022/08/09 05:23:57;;;;;;;13.40;9.35;;;14.10;99.90;;;;;;5076459;28;20036;-70
2022/08/09 05:26:22;;;;;;;11.63;8.77;;;14.20;99.90;;;;;;5051690;28;20123;-70
2022/08/09 05:28:48;;;;;;;13.07;8.90;;;14.30;99.90;;;;;;5046750;28;20272;-70
2022/08/09 05:31:14;;;;;;;10.82;8.52;;;14.40;99.90;;;;;;5061085;28;20042;-70
2022/08/09 05:33:39;;;;;;;12.40;8.35;;;14.50;99.90;;;;;;5060802;28;20041;-70
2022/08/09 05:36:05;;;;;;;11.25;8.23;;;14.60;99.90;;;;;;5060801;28;20043;-70
2022/08/09 05:38:31;;;;;;;9.98;7.43;;;14.70;99.90;;;;;;5062750;28;20119;-70
2022/08/09 05:40:57;;;;;;;8.73;7.93;;;14.90;99.90;;;;;;5063764;28;20161;-70
2022/08/09 05:43:23;;;;;;;10.85;7.47;;;15.00;99.90;;;;;;5059703;28;20037;-69
2022/08/09 05:45:49;;;;;;;9.70;6.55;;;15.10;99.90;;;;;;5061443;28;20500;-69
2022/08/09 05:48:14;;;;;;;10.52;6.25;;;15.20;99.90;;;;;;5057601;28;20151;-71
2022/08/09 05:50:42;;;;;;;8.45;5.93;;;15.20;99.90;;;;;;5052900;28;20536;-70
2022/08/09 05:53:09;;;;;;;8.15;5.78;;;15.40;99.90;;;;;;5054854;28;20040;-70
2022/08/09 05:55:35;;;;;;;9.73;6.50;;;15.50;99.90;;;;;;5056507;28;20052;-70
2022/08/09 05:58:01;;;;;;;11.57;7.95;;;15.60;99.90;;;;;;5062705;28;20126;-70
2022/08/09 06:00:29;;;;;;;6.28;5.57;;;15.60;99.90;;;;;;5075522;28;20052;-70
2022/08/09 06:02:56;;;;;;;8.38;5.95;;;15.70;99.90;;;;;;5059971;28;20079;-71
2022/08/09 06:05:23;;;;;;;8.57;5.18;;;15.80;99.90;;;;;;5064321;28;20528;-71
2022/08/09 06:07:49;;;;;;;7.10;5.80;;;15.90;99.90;;;;;;5042767;28;20600;-71
2022/08/09 06:10:14;;;;;;;7.90;5.30;;;16.00;99.90;;;;;;5042603;28;20128;-71
2022/08/09 06:12:41;;;;;;;9.02;5.85;;;16.10;99.90;;;;;;5059104;28;20048;-71
2022/08/09 06:15:07;;;;;;;8.93;5.63;;;16.20;99.90;;;;;;5056002;28;20480;-71
2022/08/09 06:17:33;;;;;;;9.23;5.75;;;16.30;99.90;;;;;;5054206;28;20132;-71
2022/08/09 06:19:59;;;;;;;7.35;5.68;;;16.40;99.90;;;;;;5061405;28;20032;-71
2022/08/09 06:22:24;;;;;;;7.63;6.07;;;16.50;99.90;;;;;;5076695;28;20103;-71
2022/08/09 06:24:50;;;;;;;6.93;5.63;;;16.60;99.90;;;;;;5062557;28;20039;-71
2022/08/09 06:27:16;;;;;;;9.98;7.13;;;16.70;99.90;;;;;;5060681;28;20040;-71
2022/08/09 06:29:42;;;;;;;8.60;5.90;;;16.80;99.90;;;;;;5043818;28;20057;-71
2022/08/09 06:32:07;;;;;;;7.68;5.45;;;16.90;99.90;;;;;;5057810;28;20503;-71
2022/08/09 06:34:33;;;;;;;8.13;5.43;;;16.90;99.90;;;;;;5057112;28;20041;-71
2022/08/09 06:36:59;;;;;;;6.55;5.63;;;17.10;99.90;;;;;;5046513;28;20061;-71
2022/08/09 06:39:25;;;;;;;7.63;5.35;;;17.20;99.90;;;;;;5053360;28;20048;-71
2022/08/09 06:41:50;;;;;;;7.60;5.05;;;17.20;99.90;;;;;;5061261;28;20040;-70
2022/08/09 06:44:16;;;;;;;6.60;5.10;;;17.40;99.90;;;;;;5062808;28;20040;-69
2022/08/09 06:46:42;;;;;;;6.00;5.32;;;17.40;99.90;;;;;;5041458;28;20049;-71
2022/08/09 06:49:08;;;;;;;7.78;5.60;;;17.60;99.90;;;;;;5060361;28;20037;-71
2022/08/09 06:51:34;;;;;;;6.57;5.03;;;17.70;99.90;;;;;;5061669;28;20101;-71
2022/08/09 06:54:00;;;;;;;6.15;4.78;;;17.90;99.90;;;;;;5063862;28;20063;-71
2022/08/09 06:56:25;;;;;;;6.43;4.45;;;18.00;99.90;;;;;;5064313;28;20486;-71
2022/08/09 06:58:51;;;;;;;8.07;4.07;;;18.00;99.90;;;;;;5061210;28;20063;-71
2022/08/09 07:01:17;;;;;;;4.40;3.50;;;18.20;99.90;;;;;;5058642;28;20140;-71
2022/08/09 07:03:42;;;;;;;7.68;3.40;;;18.30;99.90;;;;;;5057054;28;20504;-71
2022/08/09 07:06:08;;;;;;;7.13;3.95;;;18.40;99.90;;;;;;5056889;28;21542;-71
2022/08/09 07:08:34;;;;;;;4.50;3.20;;;18.50;99.90;;;;;;5059639;28;20072;-72
2022/08/09 07:11:03;;;;;;;5.72;3.40;;;18.60;99.90;;;;;;5059790;28;20041;-71
2022/08/09 07:13:29;;;;;;;4.07;2.75;;;18.60;99.90;;;;;;5042124;28;20080;-71
2022/08/09 07:15:56;;;;;;;3.80;2.80;;;18.80;99.90;;;;;;5061348;28;20415;-72
2022/08/09 07:18:21;;;;;;;4.72;2.60;;;18.90;99.90;;;;;;5060286;28;20048;-70
2022/08/09 07:20:49;;;;;;;5.80;2.75;;;19.10;99.90;;;;;;5062462;28;20123;-69
2022/08/09 07:23:16;;;;;;;6.47;2.05;;;19.20;99.90;;;;;;5051991;28;20048;-70
2022/08/09 07:25:42;;;;;;;5.47;2.70;;;19.20;99.90;;;;;;5055406;28;20068;-70
2022/08/09 07:28:08;;;;;;;4.80;2.45;;;19.40;99.90;;;;;;5056766;28;20056;-70
2022/08/09 07:30:34;;;;;;;4.03;2.03;;;19.50;99.90;;;;;;5056510;28;20535;-70
2022/08/09 07:33:00;;;;;;;6.25;2.13;;;19.60;99.90;;;;;;5074996;28;20159;-70
2022/08/09 07:35:25;;;;;;;6.35;1.90;;;19.80;99.90;;;;;;5048734;28;20730;-71
2022/08/09 07:37:51;;;;;;;4.18;1.63;;;20.20;99.90;;;;;;5048227;28;20044;-70
2022/08/09 07:40:18;;;;;;;4.25;1.98;;;20.30;99.90;;;;;;5064344;28;20087;-70
2022/08/09 07:42:54;;;;;;;3.40;1.95;;;20.40;99.90;;;;;;5045621;28;20413;-70
2022/08/09 07:45:26;;;;;;;5.63;1.80;;;20.40;99.90;;;;;;5061292;28;20051;-71
2022/08/09 07:47:54;;;;;;;4.03;1.40;;;20.50;99.90;;;;;;5064752;28;20107;-71
2022/08/09 07:50:21;;;;;;;3.97;1.35;;;20.50;99.90;;;;;;5054765;28;20085;-72
2022/08/09 07:52:47;;;;;;;2.45;0.70;;;20.70;99.90;;;;;;5045161;28;20063;-71
2022/08/09 07:55:13;;;;;;;1.73;0.60;;;20.80;99.90;;;;;;5066533;28;20079;-70
2022/08/09 07:57:39;;;;;;;3.50;0.60;;;20.90;99.90;;;;;;5062552;28;20569;-70
2022/08/09 08:00:06;;;;;;;3.58;0.80;;;20.90;99.90;;;;;;5062187;28;20145;-71
2022/08/09 08:02:32;;;;;;;2.90;0.50;;;21.10;99.90;;;;;;5060748;28;20449;-70
2022/08/09 08:04:57;;;;;;;2.75;0.60;;;21.10;99.90;;;;;;5059560;28;20039;-71
2022/08/09 08:07:23;;;;;;;5.65;0.57;;;21.20;99.90;;;;;;5064189;28;20088;-71
2022/08/09 08:09:50;;;;;;;3.15;0.73;;;21.40;99.90;;;;;;5062833;28;20053;-70
2022/08/09 08:12:15;;;;;;;4.03;1.13;;;21.40;99.90;;;;;;5061139;28;20559;-71
2022/08/09 08:14:41;;;;;;;4.03;0.40;;;21.50;99.90;;;;;;5042406;28;20136;-71
2022/08/09 08:17:07;;;;;;;0.98;0.40;;;21.40;99.90;;;;;;5053936;28;20094;-71
2022/08/09 08:19:33;;;;;;;1.70;0.70;;;21.50;99.90;;;;;;5059617;28;20029;-72
2022/08/09 08:21:59;;;;;;;1.60;0.60;;;21.80;99.90;;;;;;5044117;28;20049;-72
2022/08/09 08:24:24;;;;;;;1.05;0.43;;;22.20;99.90;;;;;;5041986;28;20049;-72
2022/08/09 08:26:50;;;;;;;2.45;0.50;;;22.60;99.90;;;;;;5060103;28;20053;-71
2022/08/09 08:29:18;;;;;;;3.83;0.60;;;23.20;99.90;;;;;;5027924;28;20060;-72
2022/08/09 08:31:44;;;;;;;2.55;0.50;;;23.70;99.30;;;;;;5059211;28;20053;-72
2022/08/09 08:34:10;;;;;;;4.57;0.60;;;24.20;98.20;;;;;;5056379;28;20052;-73
2022/08/09 08:36:36;;;;;;;2.08;0.57;;;24.70;98.10;;;;;;5040907;28;20725;-73
2022/08/09 08:39:02;;;;;;;2.33;0.50;;;25.10;95.40;;;;;;5057710;28;20131;-73
2022/08/09 08:41:29;;;;;;;1.80;0.40;;;25.30;93.80;;;;;;5057043;28;20049;-73
2022/08/09 08:43:56;;;;;;;1.05;0.30;;;25.30;91.30;;;;;;5059835;28;20098;-66
2022/08/09 08:46:25;;;;;;;1.23;0.30;;;25.50;91.40;;;;;;5060231;28;20044;-66
2022/08/09 08:48:51;;;;;;;2.10;0.30;;;25.80;90.90;;;;;;5063348;28;20043;-65
2022/08/09 08:51:17;;;;;;;1.95;0.30;;;26.10;88.50;;;;;;5062551;28;20139;-66
2022/08/09 08:53:43;;;;;;;1.52;0.47;;;26.50;86.50;;;;;;5059318;28;20155;-67
2022/08/09 08:56:09;;;;;;;1.13;0.40;;;26.90;85.10;;;;;;5041208;28;20048;-67
2022/08/09 08:58:35;;;;;;;1.60;0.38;;;26.80;81.20;;;;;;5055558;28;20085;-67
2022/08/09 09:01:03;;;;;;;1.10;0.20;;;26.70;79.50;;;;;;5057213;28;20140;-67
2022/08/09 09:03:33;;;;;;;4.25;0.35;;;26.00;79.10;;;;;;5057792;28;20237;-67
2022/08/09 09:06:01;;;;;;;1.55;0.40;;;25.60;81.20;;;;;;5059942;28;20431;-67
2022/08/09 09:08:33;;;;;;;2.80;0.38;;;25.40;80.90;;;;;;5060444;28;20049;-67
2022/08/09 09:11:03;;;;;;;1.95;0.40;;;25.20;82.20;;;;;;5063166;28;20056;-67
2022/08/09 09:13:33;;;;;;;1.52;0.30;;;24.80;82.00;;;;;;5061000;28;20037;-66
2022/08/09 09:16:00;;;;;;;0.75;0.20;;;24.20;80.60;;;;;;5062159;28;20036;-68
2022/08/09 09:18:25;;;;;;;2.92;0.50;;;23.90;83.30;;;;;;5061568;28;20130;-69
2022/08/09 09:20:51;;;;;;;2.00;0.20;;;24.10;86.40;;;;;;5063355;28;20115;-69
2022/08/09 09:23:28;;;;;;;1.23;0.20;;;24.40;85.20;;;;;;5054525;28;20053;-67
2022/08/09 09:25:54;;;;;;;1.10;0.20;;;24.60;84.10;;;;;;5056165;28;20046;-69
2022/08/09 09:28:20;;;;;;;1.65;0.20;;;24.90;84.50;;;;;;5057413;28;20469;-67
2022/08/09 09:30:56;;;;;;;1.02;0.20;;;25.40;82.80;;;;;;5057555;28;20133;-68
2022/08/09 09:33:33;;;;;;;1.63;0.30;;;25.60;79.20;;;;;;5056094;28;20040;-67
2022/08/09 09:36:07;;;;;;;2.45;0.30;;;25.60;76.50;;;;;;5059287;28;20266;-67
2022/08/09 09:38:43;;;;;;;0.63;0.20;;;25.80;78.60;;;;;;5056803;28;20053;-67
2022/08/09 09:41:09;;;;;;;0.95;0.20;;;26.10;75.60;;;;;;5063289;28;20446;-67
2022/08/09 09:43:35;;;;;;;0.73;0.20;;;26.10;76.60;;;;;;5059806;28;20040;-67
2022/08/09 09:46:01;;;;;;;0.85;0.22;;;25.90;72.70;;;;;;5059514;28;20749;-67
2022/08/09 09:48:28;;;;;;;1.50;0.10;;;25.80;73.90;;;;;;5066863;28;20044;-67
2022/08/09 09:50:55;;;;;;;0.88;0.30;;;26.00;76.90;;;;;;5054525;28;20070;-67
2022/08/09 09:53:25;;;;;;;0.88;0.20;;;26.30;74.40;;;;;;5062647;28;20337;-67
2022/08/09 09:55:53;;;;;;;0.80;0.17;;;26.40;73.30;;;;;;5057072;28;20063;-68
2022/08/09 09:58:20;;;;;;;0.75;0.20;;;26.50;71.40;;;;;;5065644;28;20101;-67
2022/08/09 10:00:56;;;;;;;0.65;0.20;;;26.50;73.00;;;;;;5058830;28;20350;-68
2022/08/09 10:03:43;;;;;;;1.83;0.20;;;26.70;71.10;;;;;;5060406;28;20052;-68
2022/08/09 10:06:10;;;;;;;0.40;0.10;;;26.80;69.30;;;;;;5058571;28;20071;-68
2022/08/09 10:08:36;;;;;;;0.38;0.10;;;26.70;69.10;;;;;;5060986;28;20040;-66
2022/08/09 10:11:22;;;;;;;2.42;0.20;;;26.70;70.20;;;;;;5059181;28;20098;-66
2022/08/09 10:13:49;;;;;;;0.47;0.15;;;27.00;67.70;;;;;;5059520;28;20392;-67
2022/08/09 10:16:35;;;;;;;0.52;0.10;;;27.10;67.80;;;;;;5053724;28;20045;-68
2022/08/09 10:19:07;;;;;;;0.88;0.20;;;26.90;67.40;;;;;;5059421;28;20040;-66
2022/08/09 10:21:34;;;;;;;1.80;0.20;;;26.80;67.60;;;;;;5057281;28;20067;-66
2022/08/09 10:24:03;;;;;;;2.83;0.10;;;27.00;67.60;;;;;;5062260;28;20051;-66
2022/08/09 10:26:29;;;;;;;1.10;0.20;;;27.20;67.80;;;;;;5060741;28;20040;-66
2022/08/09 10:28:56;;;;;;;1.65;0.30;;;27.40;66.60;;;;;;5061207;28;20388;-66
2022/08/09 10:31:23;;;;;;;0.32;0.10;;;27.60;65.80;;;;;;5060040;28;20131;-67
2022/08/09 10:33:50;;;;;;;0.95;0.10;;;27.40;64.10;;;;;;5064959;28;20036;-66
2022/08/09 10:36:16;;;;;;;0.32;0.10;;;27.20;63.00;;;;;;5055397;28;20044;-66
2022/08/09 10:38:44;;;;;;;0.75;0.10;;;27.00;64.30;;;;;;5054743;28;20099;-67
2022/08/09 10:41:12;;;;;;;1.48;0.30;;;26.80;63.70;;;;;;5055360;28;20068;-66
2022/08/09 10:43:43;;;;;;;1.02;0.20;;;26.70;64.50;;;;;;5057222;28;20037;-66
2022/08/09 10:46:37;;;;;;;0.98;0.20;;;26.70;64.60;;;;;;5059118;28;20041;-66
2022/08/09 10:49:15;;;;;;;0.50;0.10;;;26.70;64.00;;;;;;5061021;28;20048;-68
2022/08/09 10:51:54;;;;;;;1.65;0.20;;;26.80;63.00;;;;;;5062574;28;20049;-66
2022/08/09 10:54:24;;;;;;;0.30;0.10;;;26.70;62.80;;;;;;5054006;28;20040;-67
2022/08/09 10:57:15;;;;;;;0.20;0.20;;;26.50;62.30;;;;;;5060652;28;20436;-67
2022/08/09 10:59:43;;;;;;;0.40;0.10;;;26.60;63.80;;;;;;5059931;28;20044;-68
2022/08/09 11:02:14;;;;;;;1.00;0.13;;;26.70;64.60;;;;;;5057834;28;20131;-68
2022/08/09 11:04:41;;;;;;;1.00;0.13;;;27.10;63.20;;;;;;5060995;28;20058;-67
2022/08/09 11:07:07;;;;;;;0.45;0.10;;;27.30;62.80;;;;;;5069028;28;20400;-67
2022/08/09 11:09:42;;;;;;;0.28;0.10;;;27.50;61.00;;;;;;5065862;28;20040;-68
2022/08/09 11:12:12;;;;;;;1.75;0.22;;;27.40;59.80;;;;;;5064339;28;20048;-68
2022/08/09 11:14:55;;;;;;;0.40;0.20;;;27.30;59.80;;;;;;5069054;28;20126;-68
2022/08/09 11:17:20;;;;;;;1.67;0.10;;;27.30;60.20;;;;;;5052936;28;20041;-73
2022/08/09 11:19:50;;;;;;;0.45;0.00;;;27.40;60.30;;;;;;5061329;28;20032;-73
2022/08/09 11:22:17;;;;;;;0.00;0.00;;;27.40;59.10;;;;;;5057249;28;20044;-72
2022/08/09 11:25:02;;;;;;;0.30;0.10;;;27.40;59.20;;;;;;5041046;28;20123;-71
2022/08/09 11:27:37;;;;;;;0.40;0.10;;;27.40;58.10;;;;;;5039828;28;20464;-72
2022/08/09 11:30:05;;;;;;;0.55;0.13;;;27.50;59.10;;;;;;5057767;28;20465;-72
2022/08/09 11:32:50;;;;;;;1.67;0.30;;;27.70;58.10;;;;;;5067579;28;20053;-73
2022/08/09 11:35:36;;;;;;;1.70;0.50;;;27.70;58.00;;;;;;5061084;28;20045;-72
2022/08/09 11:38:23;;;;;;;1.08;0.20;;;27.70;58.70;;;;;;5061784;28;20041;-72
2022/08/09 11:40:51;;;;;;;0.95;0.30;;;28.00;60.00;;;;;;5065778;28;20075;-72
2022/08/09 11:43:47;;;;;;;0.88;0.20;;;28.00;59.30;;;;;;5064424;28;20045;-72
2022/08/09 11:46:14;;;;;;;0.70;0.20;;;28.40;58.10;;;;;;5065336;28;20369;-72
2022/08/09 11:48:55;;;;;;;0.75;0.20;;;28.70;58.10;;;;;;5059923;28;20045;-72
2022/08/09 11:51:23;;;;;;;1.73;0.20;;;28.90;55.30;;;;;;5040592;28;20210;-73
2022/08/09 11:54:11;;;;;;;0.73;0.20;;;28.80;56.70;;;;;;5042161;28;20529;-71
2022/08/09 11:56:36;;;;;;;0.50;0.15;;;28.90;56.30;;;;;;5048689;28;20078;-71
2022/08/09 11:59:02;;;;;;;1.20;0.13;;;28.70;56.00;;;;;;5063809;28;20044;-72
2022/08/09 12:01:45;;;;;;;0.10;0.10;;;28.50;56.80;;;;;;5077367;28;20049;-73
2022/08/09 12:04:13;;;;;;;0.40;0.10;;;28.40;57.20;;;;;;5060605;28;20117;-72
2022/08/09 12:06:48;;;;;;;1.35;0.10;;;28.50;56.60;;;;;;5058416;28;20047;-72
2022/08/09 12:09:14;;;;;;;1.15;0.20;;;28.70;56.70;;;;;;5059095;28;20033;-72
2022/08/09 12:11:40;;;;;;;0.75;0.20;;;28.90;56.80;;;;;;5057441;28;20537;-72
2022/08/09 12:14:09;;;;;;;1.15;0.10;;;28.90;57.10;;;;;;5060201;28;20080;-72
2022/08/09 12:16:42;;;;;;;2.28;0.20;;;29.00;57.70;;;;;;5079506;28;20421;-72
2022/08/09 12:19:10;;;;;;;0.47;0.13;;;28.80;56.30;;;;;;5051204;28;20040;-72
2022/08/09 12:21:41;;;;;;;0.52;0.20;;;28.60;56.30;;;;;;5063707;28;20032;-72
2022/08/09 12:24:08;;;;;;;1.95;0.20;;;28.40;56.90;;;;;;5043911;28;20081;-72
2022/08/09 12:26:39;;;;;;;0.20;0.10;;;28.50;56.30;;;;;;5061831;28;20037;-72
2022/08/09 12:29:06;;;;;;;1.25;0.10;;;28.50;56.10;;;;;;5058984;28;20055;-72
2022/08/09 12:31:32;;;;;;;0.60;0.10;;;28.70;56.70;;;;;;5060406;28;20079;-72
2022/08/09 12:33:58;;;;;;;1.38;0.10;;;29.10;56.40;;;;;;5049610;28;20490;-72
2022/08/09 12:36:24;;;;;;;0.40;0.20;;;29.50;55.50;;;;;;5065242;28;20045;-72
2022/08/09 12:38:51;;;;;;;0.28;0.10;;;29.70;54.10;;;;;;5058375;28;20049;-72
2022/08/09 12:41:27;;;;;;;0.17;0.10;;;29.60;53.50;;;;;;5066409;28;20041;-73
2022/08/09 12:43:54;;;;;;;2.50;0.10;;;29.50;54.40;;;;;;5059416;28;20033;-72
2022/08/09 12:46:21;;;;;;;0.28;0.20;;;29.60;53.90;;;;;;5048394;28;20864;-71
2022/08/09 12:48:48;;;;;;;0.63;0.22;;;29.60;54.50;;;;;;5044978;28;20048;-71
2022/08/09 12:51:13;;;;;;;0.55;0.10;;;29.30;54.80;;;;;;5044902;28;20049;-72